Time;durP1;ratioP1;P1;durP2;ratioP2;P2;SDS_P1;SDS_P2;PMS_P1;PMS_P2;Temp;Humidity;BMP_temperature;BMP_pressure;BME280_temperature;BME280_humidity;BME280_pressure;Samples;Min_cycle;Max_cycle;Signal;HPM_P1;HPM_P2
2022/06/18 00:00:25;;;;;;;;;;;;;;;28.08;55.12;99874.63;2036275;29;19914;-77
2022/06/18 00:01:35;;;;;;;;;;;;;;;28.07;55.03;99868.31;2034267;29;19914;-78
2022/06/18 00:02:36;;;;;;;;;;;;;;;28.07;54.96;99875.91;2019986;29;19952;-78
2022/06/18 00:03:36;;;;;;;;;;;;;;;28.06;54.80;99872.34;2019963;29;19947;-77
2022/06/18 00:04:36;;;;;;;;;;;;;;;28.06;54.72;99868.81;2017397;29;19990;-77
2022/06/18 00:05:38;;;;;;;;;;;;;;;28.06;54.88;99869.56;2023644;29;19915;-78
2022/06/18 00:06:50;;;;;;;;;;;;;;;28.06;54.78;99874.38;2021308;29;19910;-77
2022/06/18 00:07:52;;;;;;;;;;;;;;;28.05;54.96;99870.81;2032567;29;19903;-77
2022/06/18 00:08:53;;;;;;;;;;;;;;;28.05;54.87;99870.81;2032306;29;20027;-77
2022/06/18 00:09:58;;;;;;;;;;;;;;;28.06;54.90;99871.59;2035223;29;19984;-77
2022/06/18 00:13:39;;;;;;;;;;;;;;;28.06;54.81;99874.38;2031304;29;19918;-77
2022/06/18 00:13:40;;;;;;;;;;;;;;;28.05;55.39;99872.81;2036494;29;19940;-76
2022/06/18 00:14:40;;;;;;;;;;;;;;;28.05;55.50;99865.25;2034189;29;20029;-77
2022/06/18 00:15:41;;;;;;;;;;;;;;;28.04;55.08;99865.72;2025157;29;19919;-77
2022/06/18 00:16:41;;;;;;;;;;;;;;;28.04;55.04;99872.06;2023703;29;19922;-77
2022/06/18 00:17:43;;;;;;;;;;;;;;;28.03;55.09;99870.50;2025162;29;19915;-77
2022/06/18 00:18:43;;;;;;;;;;;;;;;28.04;55.20;99871.28;2020355;29;19919;-77
2022/06/18 00:19:44;;;;;;;;;;;;;;;28.03;55.24;99872.53;2028439;29;19911;-76
2022/06/18 00:20:44;;;;;;;;;;;;;;;28.03;55.21;99872.53;2016011;29;19911;-78
2022/06/18 00:21:45;;;;;;;;;;;;;;;28.02;55.14;99868.22;2027758;29;20002;-77
2022/06/18 00:22:47;;;;;;;;;;;;;;;28.01;55.24;99870.25;2031858;28;19911;-78
2022/06/18 00:23:47;;;;;;;;;;;;;;;28.01;55.49;99875.81;2033219;29;19921;-78
2022/06/18 00:24:48;;;;;;;;;;;;;;;28.01;55.25;99875.03;2037780;29;20098;-77
2022/06/18 00:25:50;;;;;;;;;;;;;;;28.00;55.25;99873.50;2036384;29;19919;-77
2022/06/18 00:26:50;;;;;;;;;;;;;;;28.00;55.24;99879.84;2040372;28;20008;-76
2022/06/18 00:27:51;;;;;;;;;;;;;;;27.99;55.23;99871.97;2039691;29;19910;-77
2022/06/18 00:28:51;;;;;;;;;;;;;;;28.00;55.19;99876.28;2037710;29;19921;-77
2022/06/18 00:29:51;;;;;;;;;;;;;;;28.00;55.15;99870.72;2037032;29;19914;-77
2022/06/18 00:30:52;;;;;;;;;;;;;;;27.99;54.99;99871.97;2037615;29;19921;-77
2022/06/18 00:31:53;;;;;;;;;;;;;;;27.98;54.97;99868.41;2037393;29;19919;-77
2022/06/18 00:32:54;;;;;;;;;;;;;;;27.98;54.93;99876.75;2035425;29;19978;-77
2022/06/18 00:33:54;;;;;;;;;;;;;;;27.98;55.10;99875.97;2028236;29;20466;-77
2022/06/18 00:34:55;;;;;;;;;;;;;;;27.98;55.10;99871.19;2028543;29;19911;-77
2022/06/18 00:35:58;;;;;;;;;;;;;;;27.97;55.13;99875.22;2037394;29;19917;-76
2022/06/18 00:36:59;;;;;;;;;;;;;;;27.96;54.92;99870.91;2036371;29;19917;-78
2022/06/18 00:38:00;;;;;;;;;;;;;;;27.96;54.85;99875.72;2028258;29;19918;-77
2022/06/18 00:39:00;;;;;;;;;;;;;;;27.95;54.84;99871.38;2020233;29;19990;-77
2022/06/18 00:40:01;;;;;;;;;;;;;;;27.95;54.85;99874.16;2022739;29;19918;-77
2022/06/18 00:41:01;;;;;;;;;;;;;;;27.94;55.12;99867.06;2027688;29;20607;-77
2022/06/18 00:42:05;;;;;;;;;;;;;;;27.94;55.22;99873.41;2038534;29;19910;-77
2022/06/18 00:43:11;;;;;;;;;;;;;;;27.94;55.24;99873.41;2034046;29;20461;-77
2022/06/18 00:44:19;;;;;;;;;;;;;;;27.94;55.24;99872.63;2033425;29;19950;-77
2022/06/18 00:45:25;;;;;;;;;;;;;;;27.94;55.30;99872.63;2023600;29;19927;-78
2022/06/18 00:46:37;;;;;;;;;;;;;;;27.94;55.28;99869.84;2033129;29;20587;-77
2022/06/18 00:48:07;;;;;;;;;;;;;;;27.95;55.32;99868.59;2034242;28;20163;-77
2022/06/18 00:49:15;;;;;;;;;;;;;;;27.93;55.24;99874.63;2019594;29;19914;-77
2022/06/18 00:50:26;;;;;;;;;;;;;;;27.93;55.39;99874.63;2036687;28;19906;-77
2022/06/18 00:51:52;;;;;;;;;;;;;;;27.94;55.37;99872.63;2033389;29;20401;-77
2022/06/18 00:53:00;;;;;;;;;;;;;;;27.93;55.42;99869.06;2037979;28;19958;-76
2022/06/18 00:54:06;;;;;;;;;;;;;;;27.93;55.36;99868.31;2039240;29;19910;-77
2022/06/18 00:55:13;;;;;;;;;;;;;;;27.92;55.33;99875.13;2036769;29;19946;-77
2022/06/18 00:56:14;;;;;;;;;;;;;;;27.92;55.40;99866.78;2034459;29;19917;-77
2022/06/18 00:57:21;;;;;;;;;;;;;;;27.92;55.47;99866.78;2037426;29;20293;-77
2022/06/18 00:58:28;;;;;;;;;;;;;;;27.90;55.50;99858.91;2043890;28;20074;-76
2022/06/18 00:59:31;;;;;;;;;;;;;;;27.89;55.44;99860.16;2042455;28;19918;-77
2022/06/18 01:00:42;;;;;;;;;;;;;;;27.89;55.50;99862.94;2045449;28;19915;-77
2022/06/18 01:01:45;;;;;;;;;;;;;;;27.87;55.28;99854.28;2037089;29;19914;-77
2022/06/18 01:02:46;;;;;;;;;;;;;;;27.88;55.48;99860.63;2026128;29;19954;-77
2022/06/18 01:03:47;;;;;;;;;;;;;;;27.89;55.43;99851.03;2029925;29;19915;-76
2022/06/18 01:04:48;;;;;;;;;;;;;;;27.89;55.47;99856.59;2040816;28;20333;-77
2022/06/18 01:05:48;;;;;;;;;;;;;;;27.89;55.55;99851.03;2043461;29;19993;-76
2022/06/18 01:06:51;;;;;;;;;;;;;;;27.89;55.44;99856.59;2039821;29;19966;-77
2022/06/18 01:07:58;;;;;;;;;;;;;;;27.89;55.59;99851.81;2040198;29;20284;-77
2022/06/18 01:09:00;;;;;;;;;;;;;;;27.89;55.27;99851.03;2038784;29;19906;-77
2022/06/18 01:10:01;;;;;;;;;;;;;;;27.88;55.19;99852.28;2040052;29;19915;-77
2022/06/18 01:11:04;;;;;;;;;;;;;;;27.87;55.31;99847.94;2039545;29;20661;-77
2022/06/18 01:12:05;;;;;;;;;;;;;;;27.87;55.31;99850.72;2038690;29;19919;-77
2022/06/18 01:13:07;;;;;;;;;;;;;;;27.88;55.37;99864.19;2038241;29;19923;-78
2022/06/18 01:14:09;;;;;;;;;;;;;;;27.86;55.30;99858.34;2040437;28;20036;-77
2022/06/18 01:15:11;;;;;;;;;;;;;;;27.86;55.44;99855.56;2038815;29;19918;-76
2022/06/18 01:16:11;;;;;;;;;;;;;;;27.86;55.53;99857.56;2038676;29;19973;-76
2022/06/18 01:17:12;;;;;;;;;;;;;;;27.86;55.23;99858.34;2037822;29;20394;-76
2022/06/18 01:18:13;;;;;;;;;;;;;;;27.85;55.36;99851.22;2036523;29;19919;-76
2022/06/18 01:19:21;;;;;;;;;;;;;;;27.86;55.30;99854.78;2039963;29;19958;-76
2022/06/18 01:20:22;;;;;;;;;;;;;;;27.85;55.48;99853.25;2030486;29;19927;-76
2022/06/18 01:21:34;;;;;;;;;;;;;;;27.84;55.60;99852.47;2033029;29;19939;-76
2022/06/18 01:22:48;;;;;;;;;;;;;;;27.84;55.65;99843.34;2038969;28;19922;-77
2022/06/18 01:24:07;;;;;;;;;;;;;;;27.82;55.39;99851.41;2031929;29;19975;-77
2022/06/18 01:25:07;;;;;;;;;;;;;;;27.83;55.63;99847.38;2038407;29;19915;-77
2022/06/18 01:26:08;;;;;;;;;;;;;;;27.82;55.69;99845.84;2039028;29;20122;-77
2022/06/18 01:27:10;;;;;;;;;;;;;;;27.80;55.63;99842.78;2041453;28;20147;-77
2022/06/18 01:28:14;;;;;;;;;;;;;;;27.80;55.70;99843.56;2028969;29;19914;-77
2022/06/18 01:29:14;;;;;;;;;;;;;;;27.80;55.71;99843.56;2030470;29;19911;-76
2022/06/18 01:30:16;;;;;;;;;;;;;;;27.80;55.88;99837.22;2038095;29;20440;-77
2022/06/18 01:31:17;;;;;;;;;;;;;;;27.80;55.87;99843.56;2038319;28;20445;-76
2022/06/18 01:32:17;;;;;;;;;;;;;;;27.79;55.68;99838.47;2041873;28;20479;-76
2022/06/18 01:33:18;;;;;;;;;;;;;;;27.79;55.83;99842.00;2033994;29;19919;-77
2022/06/18 01:34:20;;;;;;;;;;;;;;;27.78;55.70;99836.91;2031180;29;19915;-76
2022/06/18 01:35:21;;;;;;;;;;;;;;;27.78;56.17;99839.69;2031367;29;20275;-76
2022/06/18 01:36:22;;;;;;;;;;;;;;;27.77;56.03;99838.94;2029490;29;19919;-76
2022/06/18 01:37:22;;;;;;;;;;;;;;;27.78;56.19;99839.69;2037999;29;20365;-76
2022/06/18 01:38:24;;;;;;;;;;;;;;;27.77;55.91;99838.94;2028273;29;19937;-76
2022/06/18 01:39:26;;;;;;;;;;;;;;;27.77;56.21;99838.16;2023277;29;20614;-76
2022/06/18 01:40:39;;;;;;;;;;;;;;;27.78;56.32;99836.91;2034365;29;20776;-77
2022/06/18 01:41:52;;;;;;;;;;;;;;;27.76;56.36;99840.16;2033723;29;19917;-76
2022/06/18 01:42:55;;;;;;;;;;;;;;;27.76;56.31;99825.53;2033652;29;20520;-77
2022/06/18 01:43:57;;;;;;;;;;;;;;;27.75;56.07;99827.53;2034693;29;19914;-77
2022/06/18 01:45:00;;;;;;;;;;;;;;;27.76;56.25;99822.72;2036530;29;20091;-77
2022/06/18 01:46:01;;;;;;;;;;;;;;;27.75;56.56;99827.53;2034775;29;19918;-76
2022/06/18 01:47:05;;;;;;;;;;;;;;;27.75;56.38;99826.75;2041063;28;19920;-76
2022/06/18 01:48:17;;;;;;;;;;;;;;;27.74;56.37;99823.22;2037548;28;21179;-77
2022/06/18 01:49:20;;;;;;;;;;;;;;;27.73;56.38;99819.66;2026398;29;20009;-77
2022/06/18 01:50:24;;;;;;;;;;;;;;;27.73;56.44;99816.88;2017301;29;19937;-77
2022/06/18 01:51:29;;;;;;;;;;;;;;;27.73;56.15;99827.22;2025769;29;21004;-76
2022/06/18 01:52:32;;;;;;;;;;;;;;;27.72;56.04;99823.69;2034268;29;20401;-76
2022/06/18 01:53:42;;;;;;;;;;;;;;;27.72;55.99;99820.91;2040096;29;19920;-77
2022/06/18 01:54:45;;;;;;;;;;;;;;;27.72;55.94;99826.47;2039471;28;21487;-76
2022/06/18 01:55:48;;;;;;;;;;;;;;;27.71;56.08;99827.69;2042011;28;19922;-76
2022/06/18 01:56:52;;;;;;;;;;;;;;;27.71;56.28;99821.38;2038970;28;20317;-77
2022/06/18 01:57:55;;;;;;;;;;;;;;;27.71;55.97;99819.34;2038474;28;19946;-77
2022/06/18 01:59:03;;;;;;;;;;;;;;;27.70;55.99;99815.06;2034729;29;19950;-76
2022/06/18 02:00:24;;;;;;;;;;;;;;;27.70;56.15;99822.63;2034774;29;19918;-76
2022/06/18 02:01:26;;;;;;;;;;;;;;;27.69;56.19;99816.31;2034040;29;20864;-76
2022/06/18 02:02:26;;;;;;;;;;;;;;;27.70;56.18;99811.50;2033182;29;20223;-77
2022/06/18 02:03:26;;;;;;;;;;;;;;;27.69;56.30;99809.97;2025895;29;20031;-76
2022/06/18 02:04:27;;;;;;;;;;;;;;;27.68;56.36;99811.97;2023359;29;19981;-76
2022/06/18 02:05:28;;;;;;;;;;;;;;;27.68;56.31;99814.75;2034085;29;19950;-76
2022/06/18 02:06:30;;;;;;;;;;;;;;;27.68;56.36;99811.22;2027911;29;19926;-76
2022/06/18 02:07:30;;;;;;;;;;;;;;;27.67;56.40;99806.88;2025475;29;20716;-76
2022/06/18 02:08:31;;;;;;;;;;;;;;;27.68;56.52;99814.00;2041504;28;20588;-76
2022/06/18 02:09:32;;;;;;;;;;;;;;;27.66;56.39;99808.91;2038335;29;20347;-76
2022/06/18 02:10:38;;;;;;;;;;;;;;;27.67;56.36;99810.44;2038468;29;20055;-76
2022/06/18 02:11:39;;;;;;;;;;;;;;;27.66;56.26;99806.13;2037188;29;19945;-76
2022/06/18 02:12:40;;;;;;;;;;;;;;;27.66;56.32;99806.13;2038018;29;19921;-76
2022/06/18 02:13:49;;;;;;;;;;;;;;;27.66;56.49;99808.91;2038395;29;19914;-77
2022/06/18 02:14:51;;;;;;;;;;;;;;;27.65;56.69;99804.56;2038166;29;19917;-77
2022/06/18 02:15:53;;;;;;;;;;;;;;;27.65;56.56;99804.56;2034159;29;19923;-78
2022/06/18 02:16:54;;;;;;;;;;;;;;;27.64;56.48;99797.50;2034126;29;19962;-77
2022/06/18 02:17:56;;;;;;;;;;;;;;;27.65;56.59;99801.06;2034018;29;20801;-77
2022/06/18 02:18:59;;;;;;;;;;;;;;;27.65;56.54;99798.28;2034753;29;20628;-77
2022/06/18 02:20:04;;;;;;;;;;;;;;;27.65;56.47;99803.84;2028421;29;19946;-77
2022/06/18 02:21:07;;;;;;;;;;;;;;;27.64;56.58;99797.50;2028179;29;19972;-77
2022/06/18 02:22:09;;;;;;;;;;;;;;;27.63;56.66;99801.53;2034108;29;19919;-78
2022/06/18 02:23:09;;;;;;;;;;;;;;;27.63;56.70;99801.53;2035032;29;20009;-77
2022/06/18 02:24:10;;;;;;;;;;;;;;;27.62;56.72;99799.97;2034222;29;19910;-77
2022/06/18 02:25:11;;;;;;;;;;;;;;;27.62;56.60;99794.41;2032732;29;20037;-77
2022/06/18 02:26:12;;;;;;;;;;;;;;;27.62;56.82;99799.97;2033425;29;20084;-79
2022/06/18 02:27:13;;;;;;;;;;;;;;;27.61;56.84;99798.44;2031461;29;19921;-78
2022/06/18 02:28:35;;;;;;;;;;;;;;;27.61;56.85;99797.66;2030521;29;20232;-77
2022/06/18 02:29:35;;;;;;;;;;;;;;;27.60;56.96;99796.91;2028654;29;20305;-77
2022/06/18 02:30:36;;;;;;;;;;;;;;;27.59;57.14;99803.72;2031203;29;19985;-78
2022/06/18 02:31:38;;;;;;;;;;;;;;;27.59;56.99;99800.94;2031200;29;19914;-78
2022/06/18 02:32:45;;;;;;;;;;;;;;;27.60;56.90;99801.72;2032562;29;20677;-78
2022/06/18 02:34:02;;;;;;;;;;;;;;;27.59;57.06;99803.72;2031434;29;19989;-77
2022/06/18 02:35:12;;;;;;;;;;;;;;;27.58;57.00;99795.84;2034464;29;20302;-77
2022/06/18 02:36:17;;;;;;;;;;;;;;;27.58;56.95;99802.19;2033039;29;20545;-77
2022/06/18 02:37:22;;;;;;;;;;;;;;;27.57;57.23;99792.31;2034035;29;19928;-77
2022/06/18 02:38:23;;;;;;;;;;;;;;;27.57;57.49;99792.31;2038651;29;19978;-77
2022/06/18 02:39:30;;;;;;;;;;;;;;;27.56;57.38;99790.75;2037319;29;19922;-77
2022/06/18 02:40:30;;;;;;;;;;;;;;;27.56;57.34;99790.75;2034307;29;20491;-77
2022/06/18 02:41:31;;;;;;;;;;;;;;;27.56;57.65;99785.19;2028862;29;19915;-77
2022/06/18 02:42:32;;;;;;;;;;;;;;;27.55;57.80;99794.00;2037809;29;20013;-77
2022/06/18 02:43:33;;;;;;;;;;;;;;;27.55;57.52;99786.44;2039094;29;19914;-77
2022/06/18 02:44:34;;;;;;;;;;;;;;;27.54;57.43;99784.94;2041255;29;19918;-77
2022/06/18 02:45:34;;;;;;;;;;;;;;;27.53;57.62;99786.16;2039006;29;19963;-76
2022/06/18 02:46:35;;;;;;;;;;;;;;;27.54;57.52;99786.94;2039725;28;19929;-77
2022/06/18 02:47:35;;;;;;;;;;;;;;;27.53;57.67;99788.94;2040776;28;19926;-77
2022/06/18 02:48:36;;;;;;;;;;;;;;;27.53;57.52;99788.19;2034428;28;19915;-77
2022/06/18 02:49:39;;;;;;;;;;;;;;;27.53;57.35;99791.72;2033896;29;19918;-77
2022/06/18 02:50:41;;;;;;;;;;;;;;;27.52;57.46;99781.84;2034035;29;19915;-77
2022/06/18 02:51:41;;;;;;;;;;;;;;;27.53;57.44;99782.63;2037622;28;19911;-77
2022/06/18 02:52:46;;;;;;;;;;;;;;;27.52;57.44;99778.28;2035404;29;19971;-77
2022/06/18 02:53:46;;;;;;;;;;;;;;;27.51;57.39;99777.53;2031722;29;19915;-78
2022/06/18 02:54:47;;;;;;;;;;;;;;;27.51;57.60;99771.97;2035524;29;20421;-77
2022/06/18 02:55:49;;;;;;;;;;;;;;;27.50;57.47;99775.97;2037048;29;20477;-77
2022/06/18 02:56:49;;;;;;;;;;;;;;;27.50;57.48;99775.97;2038064;29;19922;-77
2022/06/18 02:57:55;;;;;;;;;;;;;;;27.51;57.38;99779.53;2028613;29;20266;-77
2022/06/18 02:58:55;;;;;;;;;;;;;;;27.50;57.57;99770.41;2030082;29;19918;-76
2022/06/18 02:59:55;;;;;;;;;;;;;;;27.49;57.54;99774.44;2038350;29;19921;-77
2022/06/18 03:01:04;;;;;;;;;;;;;;;27.49;57.79;99768.88;2035934;29;19961;-77
2022/06/18 03:02:04;;;;;;;;;;;;;;;27.49;57.63;99768.09;2037697;28;19914;-77
2022/06/18 03:03:10;;;;;;;;;;;;;;;27.48;57.99;99761.00;2035177;28;19911;-78
2022/06/18 03:04:11;;;;;;;;;;;;;;;27.48;57.71;99767.34;2034453;29;19918;-78
2022/06/18 03:05:19;;;;;;;;;;;;;;;27.48;57.92;99766.56;2025215;29;19970;-77
2022/06/18 03:06:21;;;;;;;;;;;;;;;27.46;57.89;99767.03;2026644;29;19915;-77
2022/06/18 03:07:21;;;;;;;;;;;;;;;27.46;58.15;99764.25;2038389;29;19925;-77
2022/06/18 03:08:22;;;;;;;;;;;;;;;27.47;57.98;99765.03;2032120;29;20439;-78
2022/06/18 03:09:23;;;;;;;;;;;;;;;27.46;58.17;99763.47;2032851;29;19965;-78
2022/06/18 03:13:01;;;;;;;;;;;;;;;27.45;57.94;99768.28;2038083;29;19911;-77
2022/06/18 03:14:02;;;;;;;;;;;;;;;27.44;58.22;99763.97;2037161;29;19914;-77
2022/06/18 03:15:03;;;;;;;;;;;;;;;27.44;58.19;99758.41;2037804;29;19922;-77
2022/06/18 03:16:04;;;;;;;;;;;;;;;27.44;58.10;99760.44;2032856;29;19950;-77
2022/06/18 03:17:04;;;;;;;;;;;;;;;27.43;58.26;99753.31;2028503;29;19915;-77
2022/06/18 03:18:06;;;;;;;;;;;;;;;27.44;58.41;99760.44;2040891;28;20597;-78
2022/06/18 03:19:06;;;;;;;;;;;;;;;27.42;58.24;99766.47;2026868;29;19917;-78
2022/06/18 03:20:13;;;;;;;;;;;;;;;27.42;58.16;99758.13;2023937;29;20362;-77
2022/06/18 03:21:32;;;;;;;;;;;;;;;27.41;57.82;99756.59;2037590;29;19915;-77
2022/06/18 03:22:32;;;;;;;;;;;;;;;27.41;57.97;99759.34;2037689;29;20282;-77
2022/06/18 03:23:32;;;;;;;;;;;;;;;27.40;58.24;99755.03;2037361;29;19921;-77
2022/06/18 03:24:33;;;;;;;;;;;;;;;27.40;58.36;99763.38;2038910;29;19946;-77
2022/06/18 03:25:33;;;;;;;;;;;;;;;27.40;58.22;99760.59;2040181;28;19923;-77
2022/06/18 03:26:35;;;;;;;;;;;;;;;27.40;57.94;99754.28;2029013;29;19915;-77
2022/06/18 03:27:35;;;;;;;;;;;;;;;27.39;58.00;99759.06;2026856;29;19924;-80
2022/06/18 03:28:36;;;;;;;;;;;;;;;27.40;58.07;99762.63;2033420;28;19923;-75
2022/06/18 03:29:36;;;;;;;;;;;;;;;27.39;58.03;99758.31;2033747;29;19962;-76
2022/06/18 03:30:39;;;;;;;;;;;;;;;27.38;58.22;99751.97;2032653;29;20343;-75
2022/06/18 03:31:39;;;;;;;;;;;;;;;27.38;58.14;99754.00;2025468;29;19934;-75
2022/06/18 03:32:39;;;;;;;;;;;;;;;27.37;57.99;99752.47;2027443;29;20006;-75
2022/06/18 03:33:41;;;;;;;;;;;;;;;27.38;58.24;99762.34;2034514;29;19946;-75
2022/06/18 03:34:41;;;;;;;;;;;;;;;27.38;58.22;99756.78;2037261;29;20573;-75
2022/06/18 03:35:44;;;;;;;;;;;;;;;27.37;58.06;99758.78;2036381;29;20340;-76
2022/06/18 03:36:45;;;;;;;;;;;;;;;27.36;58.16;99765.59;2035098;29;19911;-76
2022/06/18 03:37:45;;;;;;;;;;;;;;;27.36;57.86;99757.25;2039829;28;19914;-76
2022/06/18 03:38:46;;;;;;;;;;;;;;;27.36;57.74;99759.25;2039814;29;19918;-76
2022/06/18 03:39:46;;;;;;;;;;;;;;;27.34;57.70;99759.72;2035712;29;20476;-77
2022/06/18 03:40:51;;;;;;;;;;;;;;;27.35;57.70;99757.72;2038117;29;20384;-75
2022/06/18 03:41:51;;;;;;;;;;;;;;;27.34;57.98;99756.94;2028545;29;20352;-75
2022/06/18 03:42:52;;;;;;;;;;;;;;;27.34;57.83;99756.22;2029036;29;19911;-76
2022/06/18 03:43:54;;;;;;;;;;;;;;;27.33;57.61;99758.22;2039461;29;19966;-76
2022/06/18 03:44:54;;;;;;;;;;;;;;;27.34;57.66;99753.44;2031001;29;20217;-76
2022/06/18 03:46:08;;;;;;;;;;;;;;;27.33;57.91;99763.78;2036165;29;20009;-76
2022/06/18 03:47:08;;;;;;;;;;;;;;;27.32;57.80;99762.22;2036042;28;19918;-76
2022/06/18 03:48:14;;;;;;;;;;;;;;;27.32;57.83;99759.47;2031915;29;19925;-76
2022/06/18 03:49:21;;;;;;;;;;;;;;;27.31;57.88;99757.91;2033266;29;19922;-76
2022/06/18 03:50:22;;;;;;;;;;;;;;;27.30;57.74;99759.94;2033413;29;19922;-76
2022/06/18 03:51:23;;;;;;;;;;;;;;;27.30;57.74;99757.16;2036432;29;19954;-76
2022/06/18 03:52:23;;;;;;;;;;;;;;;27.31;57.90;99757.91;2036317;29;20257;-76
2022/06/18 03:53:23;;;;;;;;;;;;;;;27.30;57.59;99761.94;2037165;29;20299;-76
2022/06/18 03:54:24;;;;;;;;;;;;;;;27.30;57.49;99761.94;2036933;29;19918;-77
2022/06/18 03:55:25;;;;;;;;;;;;;;;27.29;57.47;99755.59;2032147;29;19946;-76
2022/06/18 03:56:27;;;;;;;;;;;;;;;27.27;57.41;99754.56;2030369;29;19910;-75
2022/06/18 03:57:27;;;;;;;;;;;;;;;27.28;57.44;99756.84;2035162;29;19969;-76
2022/06/18 03:58:28;;;;;;;;;;;;;;;27.29;57.61;99760.38;2032794;29;19958;-77
2022/06/18 03:59:28;;;;;;;;;;;;;;;27.28;57.90;99758.88;2034050;29;19914;-75
2022/06/18 04:00:29;;;;;;;;;;;;;;;27.26;57.57;99762.13;2037145;29;20005;-76
2022/06/18 04:01:33;;;;;;;;;;;;;;;27.28;57.60;99761.66;2037298;29;19925;-75
2022/06/18 04:02:33;;;;;;;;;;;;;;;27.26;57.68;99758.59;2029186;29;19914;-76
2022/06/18 04:03:33;;;;;;;;;;;;;;;27.26;57.97;99756.56;2033690;29;19926;-75
2022/06/18 04:04:33;;;;;;;;;;;;;;;27.26;57.87;99755.81;2033355;29;19961;-77
2022/06/18 04:05:36;;;;;;;;;;;;;;;27.26;57.96;99761.34;2032583;29;20033;-76
2022/06/18 04:06:38;;;;;;;;;;;;;;;27.26;58.08;99761.34;2032579;29;20726;-76
2022/06/18 04:07:40;;;;;;;;;;;;;;;27.24;58.12;99753.50;2025020;29;19911;-76
2022/06/18 04:08:40;;;;;;;;;;;;;;;27.24;58.23;99756.28;2022616;29;20453;-77
2022/06/18 04:09:43;;;;;;;;;;;;;;;27.24;58.05;99761.81;2033148;29;19914;-77
2022/06/18 04:10:44;;;;;;;;;;;;;;;27.24;58.08;99758.28;2033553;29;20610;-76
2022/06/18 04:11:44;;;;;;;;;;;;;;;27.24;57.94;99761.06;2031628;29;19982;-76
2022/06/18 04:12:45;;;;;;;;;;;;;;;27.23;58.04;99753.97;2033080;29;19913;-76
2022/06/18 04:13:45;;;;;;;;;;;;;;;27.22;58.06;99749.66;2024980;29;19961;-76
2022/06/18 04:14:45;;;;;;;;;;;;;;;27.22;58.08;99749.66;2024650;29;20421;-76
2022/06/18 04:15:47;;;;;;;;;;;;;;;27.21;58.15;99748.91;2025892;29;19990;-76
2022/06/18 04:16:48;;;;;;;;;;;;;;;27.22;58.19;99758.00;2025417;29;20441;-76
2022/06/18 04:17:48;;;;;;;;;;;;;;;27.22;58.22;99755.22;2024319;29;19982;-76
2022/06/18 04:18:48;;;;;;;;;;;;;;;27.20;58.23;99752.91;2032406;29;19915;-76
2022/06/18 04:19:49;;;;;;;;;;;;;;;27.20;58.19;99752.91;2035527;28;19925;-76
2022/06/18 04:20:50;;;;;;;;;;;;;;;27.20;58.14;99758.47;2036880;29;19917;-76
2022/06/18 04:21:50;;;;;;;;;;;;;;;27.20;58.37;99754.91;2032591;29;19915;-76
2022/06/18 04:22:51;;;;;;;;;;;;;;;27.20;58.32;99757.69;2032937;29;20593;-76
2022/06/18 04:23:51;;;;;;;;;;;;;;;27.20;58.13;99757.69;2032851;29;20695;-76
2022/06/18 04:24:51;;;;;;;;;;;;;;;27.19;58.31;99754.16;2034192;29;19915;-75
2022/06/18 04:25:51;;;;;;;;;;;;;;;27.18;58.03;99751.84;2033520;29;19915;-76
2022/06/18 04:26:54;;;;;;;;;;;;;;;27.17;58.10;99747.53;2033567;28;20489;-76
2022/06/18 04:27:57;;;;;;;;;;;;;;;27.17;58.48;99755.88;2030322;29;19926;-76
2022/06/18 04:28:57;;;;;;;;;;;;;;;27.17;58.51;99751.09;2024140;29;20981;-76
2022/06/18 04:29:57;;;;;;;;;;;;;;;27.17;58.35;99753.09;2032255;29;20032;-76
2022/06/18 04:30:58;;;;;;;;;;;;;;;27.16;58.27;99755.13;2028816;29;19984;-75
2022/06/18 04:31:59;;;;;;;;;;;;;;;27.16;58.29;99751.56;2035466;29;19939;-77
2022/06/18 04:33:00;;;;;;;;;;;;;;;27.16;58.32;99763.47;2028901;29;19953;-76
2022/06/18 04:34:00;;;;;;;;;;;;;;;27.16;58.38;99757.13;2029471;29;19914;-76
2022/06/18 04:35:01;;;;;;;;;;;;;;;27.15;58.42;99758.38;2037006;28;20269;-76
2022/06/18 04:36:01;;;;;;;;;;;;;;;27.15;58.61;99755.59;2037791;28;19910;-76
2022/06/18 04:37:02;;;;;;;;;;;;;;;27.15;58.48;99755.59;2034583;28;19978;-76
2022/06/18 04:38:02;;;;;;;;;;;;;;;27.15;58.63;99763.94;2033723;29;19914;-76
2022/06/18 04:39:03;;;;;;;;;;;;;;;27.14;58.48;99751.25;2031234;29;20386;-75
2022/06/18 04:40:04;;;;;;;;;;;;;;;27.13;58.41;99758.06;2030299;29;19966;-76
2022/06/18 04:41:04;;;;;;;;;;;;;;;27.14;58.65;99759.59;2034068;29;20037;-76
2022/06/18 04:42:05;;;;;;;;;;;;;;;27.13;58.59;99758.06;2032365;29;20342;-76
2022/06/18 04:43:06;;;;;;;;;;;;;;;27.13;58.45;99763.63;2032140;29;20005;-76
2022/06/18 04:44:06;;;;;;;;;;;;;;;27.13;58.59;99763.63;2029144;29;19922;-76
2022/06/18 04:45:07;;;;;;;;;;;;;;;27.12;58.70;99756.56;2027835;29;19974;-77
2022/06/18 04:46:08;;;;;;;;;;;;;;;27.11;58.51;99761.34;2027734;29;20417;-76
2022/06/18 04:47:08;;;;;;;;;;;;;;;27.11;58.74;99761.34;2038763;28;19915;-76
2022/06/18 04:48:09;;;;;;;;;;;;;;;27.11;58.75;99768.91;2036879;29;20273;-76
2022/06/18 04:49:09;;;;;;;;;;;;;;;27.11;58.58;99763.34;2036864;29;19921;-76
2022/06/18 04:50:20;;;;;;;;;;;;;;;27.11;58.74;99757.78;2037037;29;20119;-76
2022/06/18 04:51:21;;;;;;;;;;;;;;;27.10;58.54;99764.59;2036806;29;19915;-76
2022/06/18 04:52:21;;;;;;;;;;;;;;;27.11;58.75;99766.13;2036455;29;19915;-76
2022/06/18 04:53:21;;;;;;;;;;;;;;;27.10;58.70;99761.81;2034717;29;20544;-76
2022/06/18 04:54:21;;;;;;;;;;;;;;;27.09;58.54;99751.94;2031725;29;19906;-75
2022/06/18 04:55:22;;;;;;;;;;;;;;;27.09;58.62;99758.25;2034590;29;19970;-76
2022/06/18 04:56:22;;;;;;;;;;;;;;;27.09;58.68;99761.03;2024540;29;19958;-76
2022/06/18 04:57:22;;;;;;;;;;;;;;;27.09;58.64;99757.47;2025078;29;19918;-75
2022/06/18 04:58:23;;;;;;;;;;;;;;;27.08;58.58;99762.28;2026550;29;20390;-76
2022/06/18 04:59:23;;;;;;;;;;;;;;;27.08;58.59;99758.72;2032959;29;20033;-76
2022/06/18 05:00:23;;;;;;;;;;;;;;;27.08;58.74;99755.94;2032169;29;20290;-75
2022/06/18 05:01:28;;;;;;;;;;;;;;;27.07;58.71;99754.44;2024654;29;19942;-75
2022/06/18 05:02:29;;;;;;;;;;;;;;;27.07;58.58;99754.44;2024896;29;19969;-75
2022/06/18 05:03:29;;;;;;;;;;;;;;;27.06;58.56;99753.66;2034143;28;19915;-76
2022/06/18 05:04:30;;;;;;;;;;;;;;;27.05;58.69;99749.34;2032166;29;19919;-76
2022/06/18 05:05:30;;;;;;;;;;;;;;;27.05;58.52;99757.69;2036999;29;19926;-76
2022/06/18 05:06:30;;;;;;;;;;;;;;;27.04;58.57;99753.34;2037371;28;19982;-76
2022/06/18 05:07:31;;;;;;;;;;;;;;;27.05;58.58;99754.13;2035425;29;19957;-76
2022/06/18 05:08:31;;;;;;;;;;;;;;;27.05;58.57;99756.91;2028266;29;19952;-76
2022/06/18 05:09:32;;;;;;;;;;;;;;;27.03;58.12;99757.38;2028916;29;20642;-76
2022/06/18 05:10:32;;;;;;;;;;;;;;;27.04;58.36;99749.81;2028663;29;19919;-76
2022/06/18 05:11:32;;;;;;;;;;;;;;;27.03;58.07;99757.38;2030671;29;19923;-76
2022/06/18 05:12:33;;;;;;;;;;;;;;;27.03;58.25;99756.59;2030057;29;19918;-76
2022/06/18 05:13:33;;;;;;;;;;;;;;;27.02;58.71;99755.09;2030411;29;20001;-76
2022/06/18 05:14:34;;;;;;;;;;;;;;;27.02;58.38;99752.31;2037610;29;19918;-76
2022/06/18 05:15:35;;;;;;;;;;;;;;;27.02;58.47;99758.63;2036929;29;19918;-76
2022/06/18 05:16:36;;;;;;;;;;;;;;;27.02;58.62;99750.28;2039346;28;19919;-76
2022/06/18 05:17:37;;;;;;;;;;;;;;;27.02;58.46;99757.88;2037646;29;19906;-76
2022/06/18 05:18:42;;;;;;;;;;;;;;;27.03;58.45;99753.81;2033373;29;19921;-76
2022/06/18 05:19:42;;;;;;;;;;;;;;;27.01;58.42;99751.53;2036437;29;19954;-77
2022/06/18 05:20:43;;;;;;;;;;;;;;;27.01;58.78;99751.53;2034330;29;19936;-76
2022/06/18 05:21:44;;;;;;;;;;;;;;;27.01;58.29;99751.53;2024850;29;20014;-76
2022/06/18 05:22:44;;;;;;;;;;;;;;;27.01;58.47;99748.75;2025463;29;19919;-76
2022/06/18 05:23:45;;;;;;;;;;;;;;;27.01;58.37;99745.22;2031081;29;19955;-76
2022/06/18 05:24:45;;;;;;;;;;;;;;;27.01;58.66;99750.78;2032413;28;19945;-76
2022/06/18 05:25:46;;;;;;;;;;;;;;;27.00;58.38;99749.22;2032428;29;19922;-76
2022/06/18 05:26:47;;;;;;;;;;;;;;;27.01;58.76;99751.53;2034665;29;19922;-76
2022/06/18 05:27:48;;;;;;;;;;;;;;;27.00;58.77;99747.22;2035774;29;19914;-76
2022/06/18 05:28:48;;;;;;;;;;;;;;;27.01;58.58;99742.44;2027990;29;20002;-76
2022/06/18 05:29:48;;;;;;;;;;;;;;;27.01;58.45;99742.44;2029895;29;20869;-75